Relevés horaires Zürich / Fluntern (Suisse)


Relevés horaires à Zürich / Fluntern - Vendredi 04 Oct. 2002
Heure UTC1 Température [°C] Vent [km/h] Hum. [%] Pres.4 [hPa] Visi. [Km] Nébu. [octa] Préc.5 [mm] Cond.
2m. Res. Ros. Dir.2 Vit. Moy. Raf.3
23:00 9.8 9.8 8.2 N 3.7 -- -- 90 1027.7 -- -- -- --
22:00 9.8 9.4 8.5 NE 5.6 -- -- 92 1027.6 -- -- -- --
21:00 10.0 9.1 8.6 NE 7.4 -- -- 91 1027.4 -- -- -- --
20:00 10.4 8.9 9.2 NNE 11.1 -- -- 92 1026.9 -- -- -- --
19:00 10.8 8.5 9.4 NE 18.5 -- -- 91 1026.3 -- -- -- --
18:00 11.4 9.3 10.1 NNE 18.5 -- -- 92 1025.4(1.2/3h) 4.5 8/8 2/12h
Légère pluie continue
17:00 13.9 13.9 12.6 E 1.9 -- -- 92 1024 -- -- -- --
16:00 14.1 14.1 12.4 S 1.9 -- -- 89 1023.8 -- -- -- --
15:00 14.6 14.6 12.0 SO 3.7 -- -- 84 1023.3(-0.6/3h) 6 8/8 -- Brouillard
14:00 14.4 14.4 11.4 SSE 3.7 -- -- 82 1023.6 -- -- -- --
13:00 14.4 14.4 11.4 SSO 5.6 -- -- 82 1023.7 -- -- -- --
12:00 14.2 14.2 12.0 SSO 5.6 -- -- 87 1024(-0.1/3h) 4 8/8 0.3/6h
Brouillard
11:00 13.9 13.9 11.5 SO 5.6 -- -- 85 1024.3 -- -- -- --
10:00 13.3 13.3 11.6 SSO 5.6 -- -- 89 1024.5 -- -- -- --
09:00 12.9 12.9 11.4 S 1.9 -- -- 91 1024.5(0.6/3h) 3 8/8 -- Légère bruine intermittente
08:00 12.7 12.7 11.3 SO 1.9 -- -- 91 1024.3 -- -- -- --
07:00 12.5 12.5 11.2 SSE 3.7 -- -- 92 1024.2 -- -- -- --
06:00 12.4 12.4 11.4 NNO 0.0 -- -- 94 1024(0.1/3h) 2.5 8/8 1/12h
Légère pluie continue
05:00 12.5 12.5 11.2 E 3.7 -- -- 92 1023.8 -- -- -- --
04:00 12.5 12.5 11.3 NNO 0.0 -- -- 92 1023.9 -- -- -- --
03:00 12.5 12.5 11.2 E 1.9 -- -- 92 1023.8 -- -- -- --
02:00 12.9 12.9 11.4 N 1.9 -- -- 91 1023.9 -- -- -- --
01:00 12.8 12.8 11.3 N 1.9 -- -- 91 1024.3 -- -- -- --
00:00 12.6 12.6 11.2 NNO 0.0 -- -- 91 1024.3(-0.5/3h) -- -- -- --

1 Coordinated Universal Time. Actuellement il est 08:00 locale et 06:00 UTC.

2 Le vent souffle depuis la direction indiquée vers la direction oposée.

3 Les rafales max. sont disponible 40 min après l'heure du relevé.

4 Pour les stations d'altitude (plus de 600m) le géopotentiel du niveau le plus proche de la pression obligatoire est indiqué.

5 Les stations disposant d'un diffuseur peuvent indiquer "trace". Cela signifie que des précipitations ont touchés le sol mais que la quantité est inférieure à 0.1 mm.

Copyright

Les données affichées sur cette page sont la propriété exclusive de Météo Suisse.

Récapitulatif de la journée
Température [°C] Vent [km/h] Ensoleillement4 [h] Precipitations totale5 [mm] Pression [Hpa]
Min1 Max.2 Moy.3 Max. Min Max.
12.3 14.7 0 -- 0 h 0 min 5 1023.3 1027.7

1 Température minimale relevée entre 18:00 UTC la veille et 18:00 UTC le jour donné.

2 Température maximale relevée entre 06:00 UTC le jour donné et 06:00 UTC le lendemain.

3 Vent moyen de la journée basé sur les relevés horaires.

4 Ensoleillement en heures relevé entre 06:00 UTC la veille et 06:00 UTC le jour donné.

5 Précipitations totales tombées entre 06:00 UTC la jour donné et 06:00 UTC le lendemain.

Graphiques horaires